Aegean Tiffany — SVAE9 — position and weather

sailwx.info

Track history (hours):
 
Tides and Currents Weather Stations Pressure Air Temp Water Temp Dewpoint Dewpoint Depression Visibility Wind Speed Wind Dir Waves Ship Positions

Aegean Tiffany

Last reported at 2014-Dec-21 14:33 UTC. Time now 2014-Dec-22 04:13 UTC.
Position N 38°02' E 023°32'.

Length 80 m; draft 4.5 m.

Type: Tanker. MMSI: 240870000.

Date/timePositionNaut miles runAvg speedWind from/ knotsBaromVisibWave heightAir tempDewpointWater temp
2014-Dec-21 14:33N 38°02' E 023°32'5 4.8
2014-Dec-21 13:33N 37°57' E 023°34'0 0.0
2014-Dec-21 12:33N 37°57' E 023°34'0 0.0
2014-Dec-21 11:33N 37°57' E 023°34'5 5.5
2014-Dec-21 10:33N 38°02' E 023°32'1 0.8
2014-Dec-21 09:33N 38°02' E 023°31'6 6.4
2014-Dec-21 08:33N 37°58' E 023°25'9 8.5
2014-Dec-21 07:32N 37°56' E 023°14'  
2014-Dec-17 19:33N 37°57' E 023°22'7 6.3
2014-Dec-17 18:28N 38°01' E 023°29'3 0.3
2014-Dec-17 09:33N 38°02' E 023°32'1 0.5
2014-Dec-17 07:32N 38°02' E 023°31'0 0.0
2014-Dec-17 06:33N 38°02' E 023°31'0 0.0
2014-Dec-17 05:28N 38°02' E 023°31'0 0.0
2014-Dec-17 04:13N 38°02' E 023°31'0 0.0
2014-Dec-17 01:05N 38°02' E 023°31'0 0.0
2014-Dec-17 00:33N 38°02' E 023°31'0 0.0
2014-Dec-16 23:33N 38°02' E 023°31'0 0.0
2014-Dec-16 21:33N 38°02' E 023°31'1 0.1
2014-Dec-16 11:30N 38°02' E 023°32'0 0.0
2014-Dec-16 10:33N 38°02' E 023°32'0 0.0
2014-Dec-16 09:33N 38°02' E 023°32'0 0.0
2014-Dec-16 08:33N 38°02' E 023°32'0 0.0
2014-Dec-16 07:33N 38°02' E 023°32'0 0.0
2014-Dec-15 10:33N 38°02' E 023°32'0 0.0
2014-Dec-15 09:27N 38°02' E 023°32'0 0.0
2014-Dec-15 08:27N 38°02' E 023°32'0 0.0
2014-Dec-14 03:33N 38°02' E 023°32'6 6.2
2014-Dec-14 02:33N 37°58' E 023°26'8 8.0
2014-Dec-14 01:32N 37°56' E 023°16'12 8.6
2014-Dec-14 00:12N 37°55' E 023°01'  
Track history (hours):
 
Tides and Currents Weather Stations Pressure Air Temp Water Temp Dewpoint Dewpoint Depression Visibility Wind Speed Wind Dir Waves Ship Positions

Aegean Tiffany

Last reported at 2014-Dec-21 14:33 UTC. Time now 2014-Dec-22 04:13 UTC.
Position N 38°02' E 023°32'.

Length 80 m; draft 4.5 m.

Type: Tanker. MMSI: 240870000.

Date/timePositionNaut miles runAvg speedWind from/ knotsBaromVisibWave heightAir tempDewpointWater temp
2014-Dec-21 14:33N 38°02' E 023°32'5 4.8
2014-Dec-21 13:33N 37°57' E 023°34'0 0.0
2014-Dec-21 12:33N 37°57' E 023°34'0 0.0
2014-Dec-21 11:33N 37°57' E 023°34'5 5.5
2014-Dec-21 10:33N 38°02' E 023°32'1 0.8
2014-Dec-21 09:33N 38°02' E 023°31'6 6.4
2014-Dec-21 08:33N 37°58' E 023°25'9 8.5
2014-Dec-21 07:32N 37°56' E 023°14'  
2014-Dec-17 19:33N 37°57' E 023°22'7 6.3
2014-Dec-17 18:28N 38°01' E 023°29'3 0.3
2014-Dec-17 09:33N 38°02' E 023°32'1 0.5
2014-Dec-17 07:32N 38°02' E 023°31'0 0.0
2014-Dec-17 06:33N 38°02' E 023°31'0 0.0
2014-Dec-17 05:28N 38°02' E 023°31'0 0.0
2014-Dec-17 04:13N 38°02' E 023°31'0 0.0
2014-Dec-17 01:05N 38°02' E 023°31'0 0.0
2014-Dec-17 00:33N 38°02' E 023°31'0 0.0
2014-Dec-16 23:33N 38°02' E 023°31'0 0.0
2014-Dec-16 21:33N 38°02' E 023°31'1 0.1
2014-Dec-16 11:30N 38°02' E 023°32'0 0.0
2014-Dec-16 10:33N 38°02' E 023°32'0 0.0
2014-Dec-16 09:33N 38°02' E 023°32'0 0.0
2014-Dec-16 08:33N 38°02' E 023°32'0 0.0
2014-Dec-16 07:33N 38°02' E 023°32'0 0.0
2014-Dec-15 10:33N 38°02' E 023°32'0 0.0
2014-Dec-15 09:27N 38°02' E 023°32'0 0.0
2014-Dec-15 08:27N 38°02' E 023°32'0 0.0
2014-Dec-14 03:33N 38°02' E 023°32'6 6.2
2014-Dec-14 02:33N 37°58' E 023°26'8 8.0
2014-Dec-14 01:32N 37°56' E 023°16'12 8.6
2014-Dec-14 00:12N 37°55' E 023°01'  

Dump ship's entire track history